createdAt,value
2022-11-18T00:01:19.780Z,7.27
2022-11-18T00:03:47.428Z,7.28
2022-11-18T00:06:17.962Z,7.25
2022-11-18T00:08:45.324Z,7.22
2022-11-18T00:11:42.273Z,7.26
2022-11-18T00:14:23.761Z,7.22
2022-11-18T00:16:52.426Z,7.22
2022-11-18T00:19:22.870Z,7.21
2022-11-18T00:21:50.136Z,7.21
2022-11-18T00:24:17.485Z,7.22
2022-11-18T00:26:45.037Z,7.23
2022-11-18T00:29:14.732Z,7.21
2022-11-18T00:31:42.213Z,7.19
2022-11-18T00:34:17.525Z,7.16
2022-11-18T00:36:45.860Z,7.17
2022-11-18T00:39:15.612Z,7.17
2022-11-18T00:42:01.853Z,7.17
2022-11-18T00:44:29.173Z,7.13
2022-11-18T00:46:57.313Z,7.12
2022-11-18T00:49:24.793Z,7.12
2022-11-18T00:51:52.064Z,7.12
2022-11-18T00:54:19.310Z,7.13
2022-11-18T00:56:46.345Z,7.13
2022-11-18T00:59:13.516Z,7.11
2022-11-18T01:01:40.533Z,7.12
2022-11-18T01:04:07.725Z,7.10
2022-11-18T01:06:34.976Z,7.11
2022-11-18T01:09:02.262Z,7.11
2022-11-18T01:11:47.844Z,7.09
2022-11-18T01:14:15.200Z,7.11
2022-11-18T01:16:42.282Z,7.09
2022-11-18T01:19:09.470Z,7.11
2022-11-18T01:21:36.634Z,7.08
2022-11-18T01:24:03.866Z,7.09
2022-11-18T01:26:30.883Z,7.09
2022-11-18T01:28:58.259Z,7.07
2022-11-18T01:31:25.394Z,7.06
2022-11-18T01:33:52.549Z,7.06
2022-11-18T01:36:19.862Z,7.05
2022-11-18T01:38:47.710Z,7.09
2022-11-18T01:41:15.479Z,7.07
2022-11-18T01:44:00.806Z,7.07
2022-11-18T01:46:30.604Z,7.06
2022-11-18T01:49:09.959Z,7.08
2022-11-18T01:51:57.078Z,7.08
2022-11-18T01:54:33.325Z,7.06
2022-11-18T01:57:06.198Z,7.08
2022-11-18T01:59:37.873Z,7.06
2022-11-18T02:02:11.648Z,7.07
2022-11-18T02:04:47.661Z,7.06
2022-11-18T02:07:16.055Z,7.06
2022-11-18T02:09:44.012Z,7.02
2022-11-18T02:12:12.716Z,6.99
2022-11-18T02:14:44.206Z,6.97
2022-11-18T02:17:27.849Z,6.97
2022-11-18T02:20:13.364Z,6.96
2022-11-18T02:22:49.131Z,6.96
2022-11-18T02:25:40.568Z,6.98
2022-11-18T02:28:34.366Z,6.95
2022-11-18T02:31:12.014Z,6.92
2022-11-18T02:33:46.874Z,6.93
2022-11-18T02:36:20.927Z,6.94
2022-11-18T02:38:57.975Z,6.93
2022-11-18T02:41:30.453Z,6.93
2022-11-18T02:44:04.811Z,6.93
2022-11-18T02:46:38.697Z,6.95
2022-11-18T02:49:13.479Z,6.92
2022-11-18T02:51:43.181Z,6.93
2022-11-18T02:54:13.952Z,6.91
2022-11-18T02:56:42.522Z,6.91
2022-11-18T02:59:09.557Z,6.90
2022-11-18T03:01:37.241Z,6.93
2022-11-18T03:04:04.818Z,6.88
2022-11-18T03:06:34.344Z,6.85
2022-11-18T03:09:14.989Z,6.83
2022-11-18T03:12:29.067Z,6.83
2022-11-18T03:15:16.658Z,6.82
2022-11-18T03:17:46.493Z,6.84
2022-11-18T03:20:23.219Z,6.82
2022-11-18T03:23:12.682Z,6.84
2022-11-18T03:25:56.808Z,6.84
2022-11-18T03:28:34.524Z,6.84
2022-11-18T03:31:20.881Z,6.84
2022-11-18T03:33:55.256Z,6.85
2022-11-18T03:36:25.539Z,6.87
2022-11-18T03:39:01.209Z,6.85
2022-11-18T03:41:31.968Z,6.80
2022-11-18T03:44:05.920Z,6.78
2022-11-18T03:46:39.984Z,6.74
2022-11-18T03:49:11.242Z,6.71
2022-11-18T03:51:55.971Z,6.73
2022-11-18T03:54:27.550Z,6.73
2022-11-18T03:56:59.982Z,6.68
2022-11-18T03:59:37.439Z,6.65
2022-11-18T04:02:21.612Z,6.67
2022-11-18T04:04:51.879Z,6.65
2022-11-18T04:07:23.803Z,6.61
2022-11-18T04:10:01.740Z,6.59
2022-11-18T04:12:33.709Z,6.58
2022-11-18T04:15:00.894Z,6.55
2022-11-18T04:17:29.218Z,6.54
2022-11-18T04:19:56.380Z,6.46
2022-11-18T04:22:23.637Z,6.46
2022-11-18T04:24:50.747Z,6.41
2022-11-18T04:27:17.764Z,6.33
2022-11-18T04:29:44.895Z,6.32
2022-11-18T04:32:11.969Z,6.28
2022-11-18T04:34:39.177Z,6.28
2022-11-18T04:37:06.195Z,6.28
2022-11-18T04:39:33.483Z,6.19
2022-11-18T04:42:00.579Z,6.16
2022-11-18T04:44:32.427Z,6.13
2022-11-18T04:47:02.211Z,6.11
2022-11-18T04:49:30.279Z,6.11
2022-11-18T04:51:58.277Z,6.07
2022-11-18T04:54:26.282Z,6.03
2022-11-18T04:56:54.075Z,5.99
2022-11-18T04:59:24.480Z,5.93
2022-11-18T05:01:52.912Z,5.86
2022-11-18T05:04:23.966Z,5.79
2022-11-18T05:06:52.197Z,5.79
2022-11-18T05:09:20.135Z,5.78
2022-11-18T05:12:06.269Z,5.78
2022-11-18T05:14:35.024Z,5.78
2022-11-18T05:17:04.694Z,5.69
2022-11-18T05:19:31.977Z,5.66
2022-11-18T05:22:00.578Z,5.61
2022-11-18T05:24:27.802Z,5.58
2022-11-18T05:26:55.328Z,5.61
2022-11-18T05:29:22.861Z,5.65
2022-11-18T05:31:50.986Z,5.68
2022-11-18T05:34:19.054Z,5.65
2022-11-18T05:36:46.058Z,5.65
2022-11-18T05:39:13.448Z,5.64
2022-11-18T05:41:59.171Z,5.63
2022-11-18T05:44:26.540Z,5.65
2022-11-18T05:46:54.820Z,5.62
2022-11-18T05:49:22.014Z,5.61
2022-11-18T05:51:49.403Z,5.57
2022-11-18T05:54:19.285Z,5.56
2022-11-18T05:56:46.560Z,5.53
2022-11-18T05:59:14.594Z,5.54
2022-11-18T06:01:47.707Z,5.53
2022-11-18T06:04:26.265Z,5.50
2022-11-18T06:06:58.795Z,5.48
2022-11-18T06:09:31.522Z,5.46
2022-11-18T06:12:02.324Z,5.48
2022-11-18T06:15:13.364Z,5.45
2022-11-18T06:17:44.982Z,5.47
2022-11-18T06:20:12.550Z,5.43
2022-11-18T06:22:44.973Z,5.42
2022-11-18T06:25:13.887Z,5.41
2022-11-18T06:27:42.061Z,5.40
2022-11-18T06:30:12.133Z,5.38
2022-11-18T06:32:39.453Z,5.37
2022-11-18T06:35:07.467Z,5.36
2022-11-18T06:37:35.405Z,5.35
2022-11-18T06:40:04.066Z,5.34
2022-11-18T06:42:50.250Z,5.33
2022-11-18T06:45:17.478Z,5.30
2022-11-18T06:47:44.632Z,5.30
2022-11-18T06:50:11.968Z,5.28
2022-11-18T06:52:39.218Z,5.25
2022-11-18T06:55:08.531Z,5.26
2022-11-18T06:57:35.820Z,5.24
2022-11-18T07:00:04.598Z,5.22
2022-11-18T07:02:31.613Z,5.21
2022-11-18T07:04:58.837Z,5.15
2022-11-18T07:07:25.951Z,5.17
2022-11-18T07:09:53.183Z,5.16
2022-11-18T07:12:20.343Z,5.21
2022-11-18T07:14:47.637Z,5.22
2022-11-18T07:17:15.028Z,5.21
2022-11-18T07:19:42.267Z,5.22
2022-11-18T07:22:09.317Z,5.25
2022-11-18T07:24:38.167Z,5.26
2022-11-18T07:27:05.146Z,5.27
2022-11-18T07:29:32.254Z,5.29
2022-11-18T07:31:59.617Z,5.28
2022-11-18T07:34:26.765Z,5.29
2022-11-18T07:36:53.742Z,5.33
2022-11-18T07:39:21.148Z,5.35
2022-11-18T07:41:48.303Z,5.35
2022-11-18T07:44:17.622Z,5.34
2022-11-18T07:46:45.486Z,5.36
2022-11-18T07:49:12.806Z,5.37
2022-11-18T07:51:41.022Z,5.38
2022-11-18T07:54:13.563Z,5.39
2022-11-18T07:56:40.890Z,5.39
2022-11-18T07:59:08.322Z,5.41
2022-11-18T08:01:36.007Z,5.43
2022-11-18T08:04:09.037Z,5.45
2022-11-18T08:06:36.992Z,5.46
2022-11-18T08:09:08.024Z,5.46
2022-11-18T08:11:35.873Z,5.49
2022-11-18T08:14:05.070Z,5.54
2022-11-18T08:16:32.671Z,5.59
2022-11-18T08:19:01.031Z,5.59
2022-11-18T08:21:28.755Z,5.62
2022-11-18T08:23:57.397Z,5.65
2022-11-18T08:26:25.689Z,5.70
2022-11-18T08:28:53.637Z,5.73
2022-11-18T08:31:25.525Z,5.76
2022-11-18T08:34:01.323Z,5.78
2022-11-18T08:36:30.962Z,5.82
2022-11-18T08:38:59.305Z,5.84
2022-11-18T08:41:31.538Z,5.87
2022-11-18T08:43:58.674Z,5.89
2022-11-18T08:46:26.104Z,5.91
2022-11-18T08:48:53.754Z,5.95
2022-11-18T08:51:20.922Z,5.98
2022-11-18T08:53:48.211Z,6.01
2022-11-18T08:56:18.803Z,6.05
2022-11-18T08:58:46.384Z,6.07
2022-11-18T09:01:14.475Z,6.10
2022-11-18T09:03:42.229Z,6.14
2022-11-18T09:06:21.113Z,6.19
2022-11-18T09:08:48.585Z,6.25
2022-11-18T09:11:21.234Z,6.28
2022-11-18T09:16:44.600Z,6.38
2022-11-18T09:19:45.119Z,6.43
2022-11-18T09:22:00.207Z,6.46
2022-11-18T09:24:27.794Z,6.49
2022-11-18T09:26:55.050Z,6.51
2022-11-18T09:29:26.252Z,6.56
2022-11-18T09:31:55.080Z,6.59
2022-11-18T09:34:23.699Z,6.61
2022-11-18T09:36:51.601Z,6.67
2022-11-18T09:39:19.074Z,6.72
2022-11-18T09:42:27.678Z,6.78
2022-11-18T09:45:36.411Z,6.80
2022-11-18T09:48:19.847Z,6.93
2022-11-18T09:50:50.012Z,6.94
2022-11-18T09:53:26.199Z,6.98
2022-11-18T09:55:55.099Z,7.04
2022-11-18T09:58:33.188Z,7.10
2022-11-18T10:01:01.247Z,7.15
2022-11-18T10:03:33.516Z,7.23
2022-11-18T10:06:10.281Z,7.27
2022-11-18T10:08:58.349Z,7.28
2022-11-18T10:11:31.952Z,7.27
2022-11-18T10:14:47.678Z,7.31
2022-11-18T10:17:45.593Z,7.30
2022-11-18T10:20:23.732Z,7.39
2022-11-18T10:22:56.891Z,7.46
2022-11-18T10:25:24.390Z,7.43
2022-11-18T10:27:52.261Z,7.42
2022-11-18T10:30:25.432Z,7.44
2022-11-18T10:32:55.504Z,7.51
2022-11-18T10:35:28.068Z,7.50
2022-11-18T10:38:14.062Z,7.50
2022-11-18T10:40:48.329Z,7.50
2022-11-18T10:43:56.761Z,7.53
2022-11-18T10:46:28.150Z,7.53
2022-11-18T10:49:10.544Z,7.56
2022-11-18T10:51:40.850Z,7.63
2022-11-18T10:54:15.968Z,7.65
2022-11-18T10:56:57.577Z,7.68
2022-11-18T10:59:54.469Z,7.69
2022-11-18T11:02:39.654Z,7.74
2022-11-18T11:05:23.842Z,7.79
2022-11-18T11:08:36.257Z,7.82
2022-11-18T11:11:04.598Z,7.87
2022-11-18T11:13:32.859Z,7.88
2022-11-18T11:16:06.457Z,7.86
2022-11-18T11:18:41.780Z,7.86
2022-11-18T11:21:11.853Z,7.92
2022-11-18T11:23:42.313Z,7.88
2022-11-18T11:29:30.746Z,7.80
2022-11-18T11:32:33.271Z,7.71
2022-11-18T11:35:28.323Z,7.79
2022-11-18T11:38:02.795Z,7.79
2022-11-18T11:41:11.553Z,7.78
2022-11-18T11:44:10.213Z,7.76
2022-11-18T11:47:14.416Z,7.75
2022-11-18T11:50:22.185Z,7.73
2022-11-18T11:53:27.694Z,7.83
2022-11-18T11:56:24.209Z,7.81
2022-11-18T11:58:51.241Z,7.77
2022-11-18T12:01:37.154Z,7.81
2022-11-18T12:04:42.670Z,7.80
2022-11-18T12:07:22.346Z,7.81
2022-11-18T12:10:18.997Z,7.84
2022-11-18T12:13:30.567Z,7.93
2022-11-18T12:16:06.779Z,8.05
2022-11-18T12:18:33.802Z,8.11
2022-11-18T12:21:00.877Z,8.23
2022-11-18T12:23:30.423Z,8.35
2022-11-18T12:26:09.702Z,8.36
2022-11-18T12:28:43.421Z,8.37
2022-11-18T12:31:23.059Z,8.41
2022-11-18T12:33:54.126Z,8.42
2022-11-18T12:36:48.047Z,8.47
2022-11-18T12:39:24.121Z,8.46
2022-11-18T12:42:10.446Z,8.45
2022-11-18T12:44:39.627Z,8.46
2022-11-18T12:47:11.763Z,8.47
2022-11-18T12:49:38.892Z,8.48
2022-11-18T12:52:32.043Z,8.53
2022-11-18T12:55:04.670Z,8.48
2022-11-18T12:57:35.157Z,8.48
2022-11-18T13:00:18.162Z,8.54
2022-11-18T13:02:56.696Z,8.63
2022-11-18T13:05:26.819Z,8.65
2022-11-18T13:08:15.132Z,8.67
2022-11-18T13:11:17.680Z,8.66
2022-11-18T13:13:46.522Z,8.70
2022-11-18T13:16:45.532Z,8.79
2022-11-18T13:19:28.749Z,8.66
2022-11-18T13:22:18.622Z,8.67
2022-11-18T13:24:51.598Z,8.64
2022-11-18T13:27:37.154Z,8.63
2022-11-18T13:30:12.785Z,8.65
2022-11-18T13:32:48.424Z,8.59
2022-11-18T13:35:21.652Z,8.57
2022-11-18T13:37:55.228Z,8.57
2022-11-18T13:41:02.731Z,8.52
2022-11-18T13:43:35.359Z,8.42
2022-11-18T13:46:16.958Z,8.43
2022-11-18T13:48:54.198Z,8.48
2022-11-18T13:51:22.958Z,8.37
2022-11-18T13:53:58.838Z,8.34
2022-11-18T13:56:34.517Z,8.31
2022-11-18T13:59:21.111Z,8.24
2022-11-18T14:02:00.402Z,8.22
2022-11-18T14:04:30.694Z,8.19
2022-11-18T14:07:23.659Z,8.15
2022-11-18T14:09:56.262Z,8.09
2022-11-18T14:12:26.564Z,8.06
2022-11-18T14:15:04.631Z,8.03
2022-11-18T14:17:32.596Z,7.98
2022-11-18T14:20:08.558Z,7.94
2022-11-18T14:22:45.109Z,7.87
2022-11-18T14:25:17.603Z,7.82
2022-11-18T14:27:48.566Z,7.80
2022-11-18T14:30:36.127Z,7.75
2022-11-18T14:33:04.190Z,7.71
2022-11-18T14:35:34.792Z,7.68
2022-11-18T14:41:01.558Z,7.61
2022-11-18T14:43:28.691Z,7.62
2022-11-18T14:46:00.171Z,7.58
2022-11-18T14:48:32.267Z,7.54
2022-11-18T14:51:00.714Z,7.47
2022-11-18T14:53:28.189Z,7.40
2022-11-18T14:55:59.073Z,7.38
2022-11-18T14:58:26.495Z,7.31
2022-11-18T15:00:54.265Z,7.22
2022-11-18T15:03:21.675Z,7.22
2022-11-18T15:05:49.363Z,7.23
2022-11-18T15:08:17.028Z,7.20
2022-11-18T15:10:44.337Z,7.21
2022-11-18T15:13:11.600Z,7.21
2022-11-18T15:15:39.394Z,7.20
2022-11-18T15:18:06.651Z,7.24
2022-11-18T15:20:34.216Z,7.21
2022-11-18T15:23:01.598Z,7.16
2022-11-18T15:25:29.208Z,7.12
2022-11-18T15:27:59.146Z,7.06
2022-11-18T15:30:26.756Z,7.01
2022-11-18T15:32:54.120Z,6.96
2022-11-18T15:35:21.392Z,6.92
2022-11-18T15:37:48.617Z,6.87
2022-11-18T15:40:15.947Z,6.88
2022-11-18T15:42:50.582Z,6.85
2022-11-18T15:45:19.492Z,6.83
2022-11-18T15:47:47.400Z,6.79
2022-11-18T15:50:14.831Z,6.76
2022-11-18T15:52:45.427Z,6.72
2022-11-18T15:55:12.750Z,6.67
2022-11-18T15:57:39.947Z,6.71
2022-11-18T16:00:09.651Z,6.62
2022-11-18T16:02:39.582Z,6.52
2022-11-18T16:05:07.303Z,6.49
2022-11-18T16:07:34.572Z,6.43
2022-11-18T16:10:20.366Z,6.37
2022-11-18T16:12:47.701Z,6.33
2022-11-18T16:15:35.657Z,6.33
2022-11-18T16:18:03.855Z,6.26
2022-11-18T16:20:31.380Z,6.21
2022-11-18T16:22:58.664Z,6.20
2022-11-18T16:25:27.682Z,6.18
2022-11-18T16:27:56.001Z,6.14
2022-11-18T16:30:42.259Z,6.11
2022-11-18T16:33:09.552Z,6.10
2022-11-18T16:35:36.885Z,6.08
2022-11-18T16:38:04.092Z,6.09
2022-11-18T16:40:31.483Z,6.08
2022-11-18T16:43:01.512Z,6.04
2022-11-18T16:45:29.709Z,6.03
2022-11-18T16:47:57.196Z,6.00
2022-11-18T16:50:24.465Z,6.02
2022-11-18T16:52:51.894Z,6.01
2022-11-18T16:55:29.521Z,6.00
2022-11-18T16:57:56.695Z,6.01
2022-11-18T17:00:42.991Z,5.97
2022-11-18T17:03:11.386Z,5.92
2022-11-18T17:05:38.543Z,5.88
2022-11-18T17:08:06.282Z,5.90
2022-11-18T17:10:35.021Z,5.89
2022-11-18T17:13:02.455Z,5.89
2022-11-18T17:15:31.113Z,5.88
2022-11-18T17:17:58.428Z,5.89
2022-11-18T17:20:25.676Z,5.86
2022-11-18T17:22:53.434Z,5.85
2022-11-18T17:25:20.688Z,5.83
2022-11-18T17:27:49.047Z,5.85
2022-11-18T17:30:16.905Z,5.84
2022-11-18T17:32:44.183Z,5.85
2022-11-18T17:35:11.342Z,5.86
2022-11-18T17:37:40.870Z,5.85
2022-11-18T17:40:08.952Z,5.85
2022-11-18T17:42:39.053Z,5.83
2022-11-18T17:45:07.523Z,5.86
2022-11-18T17:47:34.669Z,5.87
2022-11-18T17:50:01.882Z,5.85
2022-11-18T17:52:29.108Z,5.87
2022-11-18T17:54:56.491Z,5.88
2022-11-18T17:57:23.761Z,5.88
2022-11-18T17:59:51.117Z,5.89
2022-11-18T18:02:21.617Z,5.89
2022-11-18T18:04:49.000Z,5.89
2022-11-18T18:07:16.643Z,5.90
2022-11-18T18:09:43.917Z,5.87
2022-11-18T18:12:32.092Z,5.93
2022-11-18T18:15:01.629Z,5.92
2022-11-18T18:17:29.651Z,5.92
2022-11-18T18:19:56.890Z,5.91
2022-11-18T18:22:24.620Z,5.91
2022-11-18T18:24:53.880Z,5.90
2022-11-18T18:27:21.112Z,5.92
2022-11-18T18:29:48.449Z,5.91
2022-11-18T18:32:15.963Z,5.90
2022-11-18T18:34:43.140Z,5.90
2022-11-18T18:37:11.163Z,5.91
2022-11-18T18:39:38.584Z,5.92
2022-11-18T18:42:06.059Z,5.91
2022-11-18T18:44:52.209Z,5.91
2022-11-18T18:47:19.431Z,5.90
2022-11-18T18:49:46.728Z,5.92
2022-11-18T18:52:21.750Z,5.93
2022-11-18T18:54:48.930Z,5.97
2022-11-18T18:57:15.960Z,5.98
2022-11-18T18:59:50.926Z,6.00
2022-11-18T19:02:20.934Z,5.99
2022-11-18T19:04:48.209Z,6.00
2022-11-18T19:07:16.999Z,6.00
2022-11-18T19:09:44.245Z,5.99
2022-11-18T19:12:29.867Z,5.98
2022-11-18T19:14:57.249Z,5.97
2022-11-18T19:17:27.968Z,6.00
2022-11-18T19:20:14.631Z,6.02
2022-11-18T19:22:42.168Z,6.03
2022-11-18T19:25:09.916Z,6.02
2022-11-18T19:27:39.120Z,6.02
2022-11-18T19:30:08.701Z,6.03
2022-11-18T19:32:40.191Z,6.02
2022-11-18T19:35:08.931Z,6.01
2022-11-18T19:37:36.007Z,5.99
2022-11-18T19:40:09.172Z,5.99
2022-11-18T19:42:39.666Z,5.99
2022-11-18T19:45:08.265Z,5.97
2022-11-18T19:47:35.408Z,5.99
2022-11-18T19:50:05.203Z,5.99
2022-11-18T19:52:32.482Z,5.99
2022-11-18T19:54:59.832Z,5.99
2022-11-18T19:57:27.059Z,5.99
2022-11-18T19:59:54.713Z,5.99
2022-11-18T20:02:22.410Z,5.97
2022-11-18T20:05:08.709Z,6.00
2022-11-18T20:07:36.054Z,5.95
2022-11-18T20:10:03.805Z,5.96
2022-11-18T20:12:31.252Z,5.97
2022-11-18T20:14:58.510Z,5.95
2022-11-18T20:17:28.972Z,5.94
2022-11-18T20:19:56.359Z,5.93
2022-11-18T20:22:23.710Z,5.94
2022-11-18T20:24:50.937Z,5.96
2022-11-18T20:27:19.361Z,5.97
2022-11-18T20:29:48.148Z,5.94
2022-11-18T20:32:17.923Z,5.92
2022-11-18T20:34:45.183Z,5.92
2022-11-18T20:37:26.727Z,5.90
2022-11-18T20:39:57.992Z,5.88
2022-11-18T20:42:44.311Z,5.88
2022-11-18T20:45:11.627Z,5.86
2022-11-18T20:47:39.257Z,5.89
2022-11-18T20:50:07.198Z,5.88
2022-11-18T20:52:35.215Z,5.88
2022-11-18T20:55:06.196Z,5.86
2022-11-18T20:57:33.380Z,5.85
2022-11-18T21:00:00.886Z,5.85
2022-11-18T21:02:28.242Z,5.85
2022-11-18T21:04:55.820Z,5.85
2022-11-18T21:07:23.477Z,5.83
2022-11-18T21:09:50.746Z,5.83
2022-11-18T21:12:19.436Z,5.80
2022-11-18T21:14:46.631Z,5.78
2022-11-18T21:17:14.108Z,5.76
2022-11-18T21:19:44.631Z,5.76
2022-11-18T21:22:16.147Z,5.75
2022-11-18T21:24:43.392Z,5.75
2022-11-18T21:27:14.336Z,5.72
2022-11-18T21:29:49.562Z,5.76
2022-11-18T21:32:16.956Z,5.75
2022-11-18T21:34:45.352Z,5.72
2022-11-18T21:37:12.849Z,5.73
2022-11-18T21:39:40.005Z,5.74
2022-11-18T21:42:07.292Z,5.74
2022-11-18T21:44:34.514Z,5.72
2022-11-18T21:47:02.038Z,5.72
2022-11-18T21:49:32.626Z,5.73
2022-11-18T21:51:59.796Z,5.72
2022-11-18T21:54:27.064Z,5.74
2022-11-18T21:56:54.338Z,5.75
2022-11-18T21:59:22.986Z,5.73
2022-11-18T22:01:50.291Z,5.73
2022-11-18T22:04:36.200Z,5.74
2022-11-18T22:07:03.746Z,5.73
2022-11-18T22:09:36.644Z,5.71
2022-11-18T22:12:05.964Z,5.69
2022-11-18T22:14:33.470Z,5.70
2022-11-18T22:17:00.963Z,5.69
2022-11-18T22:19:28.864Z,5.70
2022-11-18T22:21:55.993Z,5.66
2022-11-18T22:24:24.370Z,5.65
2022-11-18T22:26:53.890Z,5.61
2022-11-18T22:29:21.537Z,5.60
2022-11-18T22:31:48.892Z,5.60
2022-11-18T22:34:16.172Z,5.55
2022-11-18T22:36:43.324Z,5.53
2022-11-18T22:39:10.619Z,5.52
2022-11-18T22:41:56.540Z,5.49
2022-11-18T22:44:23.750Z,5.47
2022-11-18T22:46:53.224Z,5.45
2022-11-18T22:49:20.822Z,5.41
2022-11-18T22:51:48.412Z,5.41
2022-11-18T22:54:37.759Z,5.37
2022-11-18T22:57:04.078Z,5.37
2022-11-18T22:59:31.381Z,5.36
2022-11-18T23:01:59.411Z,5.34
2022-11-18T23:04:26.860Z,5.33
2022-11-18T23:06:54.125Z,5.31
2022-11-18T23:09:21.728Z,5.30
2022-11-18T23:12:07.600Z,5.31
2022-11-18T23:14:34.753Z,5.29
2022-11-18T23:17:02.053Z,5.29
2022-11-18T23:19:29.152Z,5.27
2022-11-18T23:21:57.680Z,5.27
2022-11-18T23:24:25.630Z,5.26
2022-11-18T23:26:52.771Z,5.26
2022-11-18T23:29:20.743Z,5.28
2022-11-18T23:31:48.607Z,5.27
2022-11-18T23:34:16.656Z,5.27
2022-11-18T23:36:43.964Z,5.26
2022-11-18T23:39:12.017Z,5.25
2022-11-18T23:41:39.955Z,5.23
2022-11-18T23:44:07.545Z,5.22
2022-11-18T23:46:34.781Z,5.23
2022-11-18T23:49:02.139Z,5.22
2022-11-18T23:51:29.119Z,5.23
2022-11-18T23:53:57.829Z,5.22
2022-11-18T23:56:26.591Z,5.20
2022-11-18T23:58:55.654Z,5.20
